Time;durP1;ratioP1;P1;durP2;ratioP2;P2;SDS_P1;SDS_P2;PMS_P1;PMS_P2;Temp;Humidity;BMP_temperature;BMP_pressure;BME280_temperature;BME280_humidity;BME280_pressure;Samples;Min_cycle;Max_cycle;Signal;HPM_P1;HPM_P2
2021/12/15 00:01:34;;;;;;;6.28;4.28;;;9.00;91.30;;;;;;5110424;27;20028;-75
2021/12/15 00:04:01;;;;;;;5.45;3.60;;;8.90;91.10;;;;;;5112912;28;20026;-75
2021/12/15 00:06:27;;;;;;;6.35;4.03;;;8.90;91.10;;;;;;5110534;28;20111;-75
2021/12/15 00:08:55;;;;;;;5.88;4.22;;;9.00;91.50;;;;;;5110999;28;20182;-75
2021/12/15 00:11:23;;;;;;;6.72;4.00;;;9.10;91.20;;;;;;5109913;27;20526;-75
2021/12/15 00:13:51;;;;;;;4.93;3.42;;;9.10;91.00;;;;;;5111061;28;20027;-75
2021/12/15 00:16:17;;;;;;;5.10;3.20;;;9.00;91.40;;;;;;5110338;28;20043;-75
2021/12/15 00:18:44;;;;;;;5.68;3.63;;;9.10;91.60;;;;;;5112520;28;20066;-75
2021/12/15 00:21:16;;;;;;;5.10;3.55;;;9.20;91.60;;;;;;5092528;28;20019;-74
2021/12/15 00:23:44;;;;;;;5.50;3.80;;;9.30;91.50;;;;;;5107029;28;20019;-74
2021/12/15 00:26:10;;;;;;;6.60;4.05;;;9.40;91.20;;;;;;5110312;28;20092;-75
2021/12/15 00:28:36;;;;;;;5.22;3.85;;;9.40;91.30;;;;;;5109090;28;20123;-74
2021/12/15 00:31:02;;;;;;;5.82;3.47;;;9.40;90.90;;;;;;5112168;28;20035;-75
2021/12/15 00:33:28;;;;;;;6.00;3.88;;;9.40;91.00;;;;;;5110497;28;20031;-75
2021/12/15 00:35:55;;;;;;;6.57;3.88;;;9.60;91.30;;;;;;5110615;28;20030;-75
2021/12/15 00:38:22;;;;;;;5.72;4.22;;;9.60;91.30;;;;;;5110527;28;20160;-75
2021/12/15 00:40:48;;;;;;;5.78;3.85;;;9.60;90.70;;;;;;5091955;28;20030;-76
2021/12/15 00:43:14;;;;;;;5.93;3.88;;;9.60;90.70;;;;;;5111282;28;20027;-76
2021/12/15 00:45:40;;;;;;;6.13;4.20;;;9.60;90.90;;;;;;5111377;28;20020;-75
2021/12/15 00:48:05;;;;;;;8.25;4.90;;;9.60;90.60;;;;;;5110464;28;20031;-76
2021/12/15 00:50:33;;;;;;;7.13;4.43;;;9.60;90.50;;;;;;5110061;28;20027;-76
2021/12/15 00:53:00;;;;;;;6.38;4.75;;;9.50;90.70;;;;;;5110668;28;20094;-76
2021/12/15 00:55:27;;;;;;;6.68;4.57;;;9.60;90.90;;;;;;5110194;28;20075;-76
2021/12/15 00:57:53;;;;;;;8.50;5.03;;;9.60;90.70;;;;;;5094028;28;20028;-76
2021/12/15 01:00:23;;;;;;;7.90;4.90;;;9.60;90.80;;;;;;5109763;28;20016;-75
2021/12/15 01:02:49;;;;;;;7.20;4.50;;;9.70;90.70;;;;;;5108571;28;20152;-75
2021/12/15 01:05:18;;;;;;;7.95;5.00;;;9.60;90.60;;;;;;5092025;28;20457;-75
2021/12/15 01:07:44;;;;;;;8.23;5.15;;;9.60;90.70;;;;;;5091502;28;20054;-75
2021/12/15 01:10:13;;;;;;;8.27;5.60;;;9.60;90.40;;;;;;5109305;28;20020;-76
2021/12/15 01:21:00;;;;;;;10.05;5.85;;;9.70;90.70;;;;;;5048582;28;20048;-75
2021/12/15 01:23:29;;;;;;;8.32;4.57;;;9.60;90.30;;;;;;5048522;28;20158;-75
2021/12/15 01:26:05;;;;;;;7.10;4.60;;;9.60;90.40;;;;;;5048504;28;20047;-76
2021/12/15 01:28:32;;;;;;;7.10;4.75;;;9.60;90.30;;;;;;5048489;28;20108;-75
2021/12/15 01:30:59;;;;;;;6.93;4.65;;;9.60;90.50;;;;;;5048906;28;20559;-76
2021/12/15 01:33:27;;;;;;;9.80;5.20;;;9.60;90.40;;;;;;5048035;28;20060;-75
2021/12/15 01:35:56;;;;;;;8.32;5.18;;;9.60;90.10;;;;;;5046700;28;20094;-75
2021/12/15 01:38:33;;;;;;;7.97;5.53;;;9.50;90.10;;;;;;5048534;28;20029;-75
2021/12/15 01:40:59;;;;;;;6.55;4.25;;;9.60;90.10;;;;;;5048580;28;20037;-75
2021/12/15 01:49:12;;;;;;;8.57;5.53;;;9.50;90.20;;;;;;4985969;28;20542;-76
2021/12/15 01:51:37;;;;;;;8.13;4.88;;;9.50;90.30;;;;;;4990943;28;20053;-75
2021/12/15 01:54:04;;;;;;;8.68;4.78;;;9.50;90.10;;;;;;5046838;28;20037;-75
2021/12/15 01:56:31;;;;;;;8.02;5.32;;;9.50;90.30;;;;;;5049284;28;20094;-75
2021/12/15 01:58:57;;;;;;;9.10;5.43;;;9.60;90.20;;;;;;5048980;28;20029;-75
2021/12/15 02:01:23;;;;;;;10.02;5.78;;;9.60;90.30;;;;;;5050678;28;20147;-75
2021/12/15 02:03:49;;;;;;;8.23;5.13;;;9.70;90.40;;;;;;5051214;28;20080;-75
2021/12/15 02:06:15;;;;;;;9.02;5.35;;;9.70;90.00;;;;;;5049217;28;20549;-75
2021/12/15 02:08:42;;;;;;;7.65;4.57;;;9.50;88.70;;;;;;5050803;28;20052;-75
2021/12/15 02:11:09;;;;;;;8.48;5.47;;;9.40;89.90;;;;;;5049633;28;20045;-75
2021/12/15 02:13:34;;;;;;;7.93;5.70;;;9.50;90.30;;;;;;5048756;28;20086;-76
2021/12/15 02:16:03;;;;;;;10.07;6.13;;;9.50;90.10;;;;;;5052090;28;20401;-76
2021/12/15 02:18:32;;;;;;;8.85;5.35;;;9.50;89.80;;;;;;5050729;28;20029;-76
2021/12/15 02:21:02;;;;;;;8.70;5.40;;;9.60;90.30;;;;;;5049002;28;20584;-76
2021/12/15 02:23:37;;;;;;;7.90;5.05;;;9.60;90.00;;;;;;5083165;28;20035;-76
2021/12/15 02:26:09;;;;;;;9.60;6.20;;;9.60;90.10;;;;;;5112851;28;20553;-76
2021/12/15 02:28:38;;;;;;;8.48;5.53;;;9.50;89.50;;;;;;5097256;28;20087;-76
2021/12/15 02:31:21;;;;;;;9.80;5.38;;;9.50;89.90;;;;;;5114682;28;20444;-76
2021/12/15 02:33:56;;;;;;;8.27;5.30;;;9.50;90.00;;;;;;5113170;28;20020;-76
2021/12/15 02:39:09;;;;;;;9.75;6.05;;;9.50;90.00;;;;;;5112944;28;20069;-76
2021/12/15 02:41:36;;;;;;;7.93;5.68;;;9.50;89.30;;;;;;5112331;28;20027;-76
2021/12/15 02:44:07;;;;;;;10.20;6.18;;;9.30;89.30;;;;;;5111184;28;20073;-76
2021/12/15 02:46:34;;;;;;;7.70;5.03;;;9.30;89.50;;;;;;5096250;28;20042;-76
2021/12/15 02:49:02;;;;;;;8.40;5.25;;;9.30;89.80;;;;;;5096475;28;20023;-76
2021/12/15 02:51:29;;;;;;;7.15;5.10;;;9.40;89.50;;;;;;5112335;28;20496;-76
2021/12/15 02:54:01;;;;;;;9.27;5.70;;;9.30;89.40;;;;;;5112225;28;20062;-76
2021/12/15 02:56:27;;;;;;;7.60;5.18;;;9.30;90.00;;;;;;5111969;28;20036;-75
2021/12/15 02:58:59;;;;;;;8.63;5.82;;;9.40;90.00;;;;;;5112338;28;20030;-76
2021/12/15 03:01:38;;;;;;;8.27;5.72;;;9.30;89.50;;;;;;5093833;28;20131;-75
2021/12/15 03:04:16;;;;;;;9.65;6.47;;;9.30;90.00;;;;;;5113953;28;20019;-76
2021/12/15 03:06:54;;;;;;;10.23;6.05;;;9.30;89.70;;;;;;5113988;28;20124;-75
2021/12/15 03:17:22;;;;;;;9.05;6.03;;;9.20;89.90;;;;;;5112034;28;20080;-77
2021/12/15 03:19:50;;;;;;;8.75;5.45;;;9.30;90.00;;;;;;5112127;28;20024;-76
2021/12/15 03:22:16;;;;;;;9.32;5.47;;;9.20;89.70;;;;;;5112522;28;20111;-77
2021/12/15 03:24:41;;;;;;;9.45;5.90;;;9.30;89.70;;;;;;5113076;28;20090;-76
2021/12/15 03:27:14;;;;;;;10.35;6.57;;;9.30;90.20;;;;;;5111622;28;20098;-77
2021/12/15 03:35:06;;;;;;;10.98;6.25;;;9.50;90.10;;;;;;5111983;28;20058;-76
2021/12/15 03:37:35;;;;;;;8.80;6.18;;;9.50;89.50;;;;;;5111813;28;20028;-76
2021/12/15 03:40:04;;;;;;;9.50;6.45;;;9.40;89.00;;;;;;5113358;28;20024;-76
2021/12/15 03:42:39;;;;;;;10.23;6.93;;;9.40;89.50;;;;;;5112134;28;20028;-76
2021/12/15 03:45:08;;;;;;;10.90;6.82;;;9.30;89.40;;;;;;5110006;28;20517;-76
2021/12/15 03:47:38;;;;;;;9.60;5.65;;;9.40;89.80;;;;;;5111356;28;20102;-76
2021/12/15 03:50:07;;;;;;;9.73;5.85;;;9.40;89.70;;;;;;5093231;28;20023;-77
2021/12/15 03:52:32;;;;;;;11.43;6.68;;;9.40;89.30;;;;;;5095225;28;20047;-75
2021/12/15 03:54:58;;;;;;;9.68;6.13;;;9.30;88.90;;;;;;5112828;28;20487;-76
2021/12/15 03:57:24;;;;;;;10.73;6.07;;;9.30;88.90;;;;;;5092808;28;20027;-76
2021/12/15 03:59:50;;;;;;;11.07;7.22;;;9.20;89.00;;;;;;5111199;28;20110;-77
2021/12/15 04:02:18;;;;;;;10.68;6.63;;;9.20;89.30;;;;;;5111138;28;20111;-76
2021/12/15 04:04:45;;;;;;;11.88;6.93;;;9.20;90.00;;;;;;5091032;28;20095;-76
2021/12/15 04:07:12;;;;;;;10.63;6.63;;;9.20;89.60;;;;;;5112367;28;20438;-76
2021/12/15 04:09:39;;;;;;;11.23;6.78;;;9.20;89.50;;;;;;5111720;28;20050;-76
2021/12/15 04:12:06;;;;;;;10.77;6.35;;;9.20;89.70;;;;;;5110207;27;20039;-77
2021/12/15 04:14:42;;;;;;;10.48;6.88;;;9.20;89.70;;;;;;5109840;28;20508;-77
2021/12/15 04:17:18;;;;;;;11.95;7.43;;;9.20;89.40;;;;;;5111009;28;20016;-76
2021/12/15 04:19:44;;;;;;;10.18;6.38;;;9.30;89.50;;;;;;5111076;28;20015;-75
2021/12/15 04:22:10;;;;;;;12.95;7.05;;;9.10;89.30;;;;;;5111774;28;20396;-76
2021/12/15 04:24:36;;;;;;;14.15;7.68;;;9.20;89.50;;;;;;5110153;28;20039;-76
2021/12/15 04:27:02;;;;;;;12.35;7.60;;;9.10;89.40;;;;;;5092453;28;20016;-75
2021/12/15 04:29:29;;;;;;;12.88;7.55;;;9.10;89.70;;;;;;5110784;28;20441;-74
2021/12/15 04:32:10;;;;;;;11.88;7.63;;;9.20;89.80;;;;;;5110668;28;20393;-76
2021/12/15 04:34:36;;;;;;;12.15;7.70;;;9.20;89.80;;;;;;5076658;28;20024;-75
2021/12/15 04:37:02;;;;;;;13.30;8.20;;;9.30;89.60;;;;;;5112394;28;20023;-75
2021/12/15 04:39:28;;;;;;;14.55;8.95;;;9.20;89.50;;;;;;5110229;28;20024;-77
2021/12/15 04:41:56;;;;;;;13.88;8.20;;;9.30;89.70;;;;;;5110304;28;20026;-76
2021/12/15 04:44:26;;;;;;;13.55;8.07;;;9.30;89.40;;;;;;5110378;28;20023;-77
2021/12/15 04:47:00;;;;;;;11.02;7.53;;;9.20;89.10;;;;;;5110375;28;20027;-77
2021/12/15 04:49:29;;;;;;;11.95;7.65;;;9.10;88.80;;;;;;5110544;28;20052;-77
2021/12/15 04:51:55;;;;;;;11.48;6.85;;;9.10;89.70;;;;;;5093587;28;20035;-76
2021/12/15 04:54:21;;;;;;;12.43;7.03;;;9.20;89.80;;;;;;5110373;28;20051;-75
2021/12/15 04:56:47;;;;;;;9.80;6.88;;;9.20;89.20;;;;;;5091987;28;20024;-76
2021/12/15 04:59:14;;;;;;;11.05;6.78;;;9.20;89.30;;;;;;5110233;28;20027;-75
2021/12/15 05:01:40;;;;;;;10.98;6.97;;;9.30;89.50;;;;;;5108860;28;20115;-74
2021/12/15 05:04:05;;;;;;;10.90;7.30;;;9.30;89.50;;;;;;5111893;28;20094;-75
2021/12/15 05:06:31;;;;;;;11.27;6.90;;;9.20;88.90;;;;;;5110237;28;20499;-74
2021/12/15 05:08:57;;;;;;;10.35;6.57;;;9.20;89.10;;;;;;5109329;28;20099;-75
2021/12/15 05:11:23;;;;;;;12.07;7.47;;;9.20;88.60;;;;;;5108242;28;20092;-75
2021/12/15 05:13:49;;;;;;;11.40;6.63;;;9.10;88.60;;;;;;5110593;28;20060;-75
2021/12/15 05:16:16;;;;;;;10.68;7.00;;;9.20;88.90;;;;;;5111245;28;20518;-75
2021/12/15 05:18:43;;;;;;;8.93;6.03;;;9.10;88.30;;;;;;5111858;28;20024;-75
2021/12/15 05:21:11;;;;;;;13.10;7.80;;;9.10;89.00;;;;;;5109621;28;20094;-75
2021/12/15 05:23:44;;;;;;;10.80;6.57;;;9.00;88.80;;;;;;5091974;28;20107;-75
2021/12/15 05:26:10;;;;;;;11.82;6.93;;;9.10;89.30;;;;;;5112230;28;20043;-75
2021/12/15 05:28:36;;;;;;;11.13;6.57;;;9.10;89.00;;;;;;5114065;28;20085;-75
2021/12/15 05:31:01;;;;;;;11.80;7.40;;;9.00;88.90;;;;;;5115905;28;20500;-75
2021/12/15 05:33:27;;;;;;;10.13;6.18;;;9.10;89.20;;;;;;5114040;28;20034;-75
2021/12/15 05:35:55;;;;;;;9.02;5.53;;;9.10;89.10;;;;;;5113643;28;20028;-75
2021/12/15 05:38:21;;;;;;;9.85;6.05;;;9.00;89.00;;;;;;5113422;28;20019;-76
2021/12/15 05:40:47;;;;;;;8.65;5.43;;;9.00;89.00;;;;;;5094087;28;20034;-75
2021/12/15 05:43:13;;;;;;;9.68;5.57;;;9.00;90.00;;;;;;5096547;28;20151;-76
2021/12/15 05:45:40;;;;;;;8.52;5.57;;;9.00;88.80;;;;;;5115017;28;20032;-76
2021/12/15 05:48:08;;;;;;;9.63;6.10;;;9.00;89.40;;;;;;5113890;28;20028;-75
2021/12/15 05:50:34;;;;;;;7.90;5.30;;;9.00;88.60;;;;;;5113676;28;20094;-75
2021/12/15 05:53:01;;;;;;;9.20;5.63;;;9.00;89.10;;;;;;5114032;28;20038;-75
2021/12/15 05:55:28;;;;;;;8.02;5.10;;;9.00;88.70;;;;;;5114014;28;22667;-75
2021/12/15 05:57:54;;;;;;;8.15;5.50;;;8.90;89.10;;;;;;5115657;28;20361;-75
2021/12/15 06:00:25;;;;;;;9.77;5.75;;;9.00;89.00;;;;;;5113719;28;20031;-75
2021/12/15 06:02:52;;;;;;;8.50;5.65;;;8.90;89.00;;;;;;5093390;28;20075;-75
2021/12/15 06:05:19;;;;;;;8.60;5.38;;;9.00;89.50;;;;;;5094854;28;20059;-75
2021/12/15 06:07:46;;;;;;;8.85;5.53;;;9.10;89.30;;;;;;5113901;28;20050;-75
2021/12/15 06:10:19;;;;;;;9.20;4.97;;;9.10;89.60;;;;;;5096606;28;20396;-75
2021/12/15 06:12:47;;;;;;;8.50;5.50;;;9.20;89.20;;;;;;5113322;28;20027;-76
2021/12/15 06:15:20;;;;;;;8.90;5.38;;;9.20;88.70;;;;;;5113326;28;20028;-75
2021/12/15 06:17:46;;;;;;;8.10;5.60;;;9.10;88.90;;;;;;5095042;28;20035;-75
2021/12/15 06:20:11;;;;;;;7.25;4.90;;;9.10;88.70;;;;;;5112846;28;20016;-75
2021/12/15 06:22:39;;;;;;;7.88;5.10;;;9.10;88.70;;;;;;5113134;28;20027;-74
2021/12/15 06:25:05;;;;;;;9.60;5.80;;;9.10;89.30;;;;;;5115124;28;20026;-75
2021/12/15 06:27:35;;;;;;;8.48;5.32;;;9.20;88.80;;;;;;5113302;28;20068;-74
2021/12/15 06:30:01;;;;;;;9.77;5.97;;;9.20;88.80;;;;;;5112920;28;20023;-75
2021/12/15 06:32:27;;;;;;;8.93;6.13;;;9.10;88.50;;;;;;5113134;28;20083;-74
2021/12/15 06:34:53;;;;;;;10.43;5.93;;;9.10;88.40;;;;;;5113078;28;20094;-75
2021/12/15 06:37:18;;;;;;;10.00;5.93;;;9.10;88.40;;;;;;5112596;28;20180;-75
2021/12/15 06:39:44;;;;;;;8.98;5.38;;;9.10;88.60;;;;;;5114870;28;20486;-75
2021/12/15 06:42:10;;;;;;;8.20;5.25;;;9.10;88.50;;;;;;5112444;28;20450;-75
2021/12/15 06:44:35;;;;;;;10.93;6.65;;;9.10;88.90;;;;;;5112420;28;20388;-75
2021/12/15 06:47:43;;;;;;;8.77;5.72;;;9.10;88.20;;;;;;5112608;28;20054;-76
2021/12/15 06:58:21;;;;;;;7.50;5.00;;;9.10;88.70;;;;;;5111539;28;20041;-75
2021/12/15 07:00:50;;;;;;;8.00;4.93;;;9.10;89.60;;;;;;5112616;28;20107;-75
2021/12/15 07:03:18;;;;;;;10.18;6.18;;;9.10;88.90;;;;;;5111928;28;20068;-75
2021/12/15 07:05:44;;;;;;;9.40;5.30;;;9.10;88.40;;;;;;5112397;28;20015;-75
2021/12/15 07:08:12;;;;;;;11.43;6.57;;;9.10;88.70;;;;;;5112194;28;20502;-75
2021/12/15 07:10:41;;;;;;;9.82;6.13;;;8.90;87.70;;;;;;5111688;28;20086;-75
2021/12/15 07:13:08;;;;;;;9.32;5.45;;;8.90;87.90;;;;;;5113841;28;20016;-75
2021/12/15 07:15:36;;;;;;;9.98;6.50;;;8.80;88.40;;;;;;5111023;28;20084;-76
2021/12/15 07:18:05;;;;;;;10.35;6.78;;;8.80;88.50;;;;;;5111627;28;20012;-75
2021/12/15 07:22:59;;;;;;;8.88;5.82;;;8.80;88.90;;;;;;5112285;28;20020;-76
2021/12/15 07:25:26;;;;;;;8.98;5.70;;;8.80;88.90;;;;;;5112093;28;20031;-76
2021/12/15 07:27:53;;;;;;;9.77;6.10;;;8.80;89.00;;;;;;5112858;28;20019;-77
2021/12/15 07:30:22;;;;;;;9.48;6.07;;;8.80;89.20;;;;;;5111715;28;20522;-76
2021/12/15 07:32:48;;;;;;;8.05;5.15;;;8.80;89.10;;;;;;5110450;28;20044;-77
2021/12/15 07:35:16;;;;;;;9.68;6.07;;;8.90;89.60;;;;;;5108662;28;20031;-76
2021/12/15 07:37:42;;;;;;;8.43;5.55;;;9.00;89.20;;;;;;5111968;28;20028;-77
2021/12/15 07:40:12;;;;;;;9.20;5.82;;;9.00;88.90;;;;;;5112404;28;20019;-76
2021/12/15 07:42:55;;;;;;;8.75;5.95;;;9.00;88.90;;;;;;5112343;28;20027;-75
2021/12/15 07:45:26;;;;;;;9.18;5.43;;;9.00;88.70;;;;;;5110749;28;20031;-76
2021/12/15 07:47:58;;;;;;;10.48;6.25;;;9.00;88.70;;;;;;5109846;28;20019;-76
2021/12/15 07:50:25;;;;;;;9.32;5.82;;;9.00;88.90;;;;;;5108327;28;20032;-76
2021/12/15 07:52:51;;;;;;;8.95;5.53;;;9.00;88.60;;;;;;5111066;28;20049;-76
2021/12/15 07:55:18;;;;;;;8.57;5.72;;;9.00;88.80;;;;;;5117329;27;20035;-75
2021/12/15 07:57:44;;;;;;;9.45;5.72;;;9.00;89.10;;;;;;5109997;27;20034;-75
2021/12/15 08:00:11;;;;;;;8.93;5.25;;;9.00;89.20;;;;;;5116190;27;20019;-74
2021/12/15 08:02:37;;;;;;;8.93;5.97;;;9.00;88.70;;;;;;5107927;27;20064;-74
2021/12/15 08:05:05;;;;;;;8.00;5.28;;;9.00;88.60;;;;;;5114340;27;20081;-76
2021/12/15 08:07:31;;;;;;;10.10;6.13;;;9.00;88.40;;;;;;5108898;27;20028;-75
2021/12/15 08:09:56;;;;;;;10.02;6.00;;;9.00;88.50;;;;;;5091915;28;20068;-75
2021/12/15 08:12:22;;;;;;;8.35;5.30;;;8.90;87.70;;;;;;5108930;28;20114;-74
2021/12/15 08:14:48;;;;;;;7.68;5.05;;;8.80;88.20;;;;;;5109296;28;20047;-75
2021/12/15 08:17:15;;;;;;;8.07;5.25;;;8.80;88.50;;;;;;5109733;28;20043;-74
2021/12/15 08:19:41;;;;;;;9.77;5.82;;;8.80;88.60;;;;;;5091726;28;20036;-75
2021/12/15 08:22:06;;;;;;;9.88;5.72;;;8.90;89.40;;;;;;5110606;28;20041;-75
2021/12/15 08:24:32;;;;;;;7.38;4.82;;;8.90;89.10;;;;;;5109887;28;20032;-76
2021/12/15 08:26:58;;;;;;;9.38;5.97;;;8.90;88.90;;;;;;5108399;28;20028;-75
2021/12/15 08:29:24;;;;;;;8.20;5.55;;;8.90;88.90;;;;;;5108099;27;20051;-75
2021/12/15 08:31:49;;;;;;;7.70;5.03;;;8.90;88.50;;;;;;5105302;28;20552;-74
2021/12/15 08:34:15;;;;;;;8.35;5.53;;;8.90;89.20;;;;;;5112888;27;20470;-76
2021/12/15 08:36:41;;;;;;;8.68;5.75;;;9.00;89.00;;;;;;5117665;27;20031;-76
2021/12/15 08:39:11;;;;;;;7.30;5.18;;;9.00;88.50;;;;;;5109715;28;20503;-77
2021/12/15 08:41:37;;;;;;;10.00;6.25;;;8.90;88.50;;;;;;5118211;27;20016;-77
2021/12/15 08:44:08;;;;;;;8.50;5.85;;;8.90;88.20;;;;;;5103035;28;20161;-76
2021/12/15 08:46:40;;;;;;;7.55;5.05;;;8.80;87.90;;;;;;5094453;28;20035;-75
2021/12/15 08:49:08;;;;;;;7.82;4.95;;;8.80;88.70;;;;;;5112166;28;20036;-76
2021/12/15 08:51:35;;;;;;;9.57;5.57;;;8.90;89.10;;;;;;5109237;28;20043;-76
2021/12/15 08:54:05;;;;;;;7.75;4.75;;;8.90;88.70;;;;;;5114631;27;20092;-77
2021/12/15 08:56:32;;;;;;;9.38;5.68;;;9.00;89.20;;;;;;5118977;27;20024;-77
2021/12/15 08:58:59;;;;;;;8.82;5.72;;;9.00;88.80;;;;;;5115881;27;20115;-75
2021/12/15 09:01:25;;;;;;;9.18;5.57;;;9.00;88.90;;;;;;5124765;27;20076;-76
2021/12/15 09:03:52;;;;;;;8.50;5.38;;;9.10;88.20;;;;;;5112417;28;20023;-76
2021/12/15 09:06:18;;;;;;;9.68;6.15;;;8.90;87.50;;;;;;5113586;28;20049;-74
2021/12/15 09:08:45;;;;;;;9.38;5.80;;;8.80;87.50;;;;;;5096285;28;20056;-68
2021/12/15 09:11:18;;;;;;;9.45;5.72;;;8.70;87.80;;;;;;5112514;28;20044;-67
2021/12/15 09:13:47;;;;;;;8.27;5.78;;;8.70;88.00;;;;;;5110929;28;20035;-67
2021/12/15 09:16:13;;;;;;;9.25;5.80;;;8.70;88.70;;;;;;5114730;28;20023;-65
2021/12/15 09:18:41;;;;;;;9.88;5.50;;;8.70;88.80;;;;;;5111719;28;20019;-65
2021/12/15 09:21:10;;;;;;;9.38;5.93;;;8.80;88.50;;;;;;5108925;28;20024;-65
2021/12/15 09:23:37;;;;;;;8.45;5.25;;;8.70;88.00;;;;;;5116382;28;20503;-66
2021/12/15 09:26:04;;;;;;;9.77;6.10;;;8.70;88.30;;;;;;5109736;28;20070;-64
2021/12/15 09:28:32;;;;;;;8.70;5.53;;;8.70;88.30;;;;;;5111685;28;20016;-65
2021/12/15 09:30:59;;;;;;;8.13;5.65;;;8.70;88.10;;;;;;5112545;28;20044;-65
2021/12/15 09:33:32;;;;;;;8.43;5.13;;;8.70;89.00;;;;;;5109487;28;20023;-65
2021/12/15 09:35:59;;;;;;;8.00;5.18;;;8.80;88.90;;;;;;5111217;28;20028;-65
2021/12/15 09:38:25;;;;;;;7.05;4.90;;;8.80;88.60;;;;;;5091197;28;20020;-66
2021/12/15 09:40:54;;;;;;;8.25;5.28;;;8.70;88.30;;;;;;5113655;28;20062;-66
2021/12/15 09:43:20;;;;;;;7.80;5.07;;;8.80;88.90;;;;;;5111853;28;20011;-65
2021/12/15 09:45:52;;;;;;;8.45;5.63;;;8.80;88.80;;;;;;5110753;28;20102;-66
2021/12/15 10:02:14;;;;;;;7.82;5.13;;;8.90;88.50;;;;;;5107215;28;20180;-66
2021/12/15 10:04:57;;;;;;;8.43;5.25;;;8.80;88.30;;;;;;5111484;28;20028;-66
2021/12/15 10:18:24;;;;;;;8.52;5.25;;;8.90;87.30;;;;;;5112132;27;20627;-65
2021/12/15 10:20:50;;;;;;;9.32;5.68;;;8.80;87.50;;;;;;5110943;27;20472;-65
2021/12/15 10:23:23;;;;;;;9.63;6.00;;;8.80;88.00;;;;;;5114479;27;20066;-65
2021/12/15 10:25:53;;;;;;;10.70;6.68;;;8.80;88.60;;;;;;5110736;27;20043;-64
2021/12/15 10:28:25;;;;;;;9.23;5.53;;;8.90;88.30;;;;;;5114416;27;20023;-64
2021/12/15 10:30:55;;;;;;;9.45;6.07;;;9.00;88.40;;;;;;5114744;27;20515;-65
2021/12/15 10:33:43;;;;;;;8.63;5.57;;;9.00;88.10;;;;;;5112491;27;20019;-64
2021/12/15 10:36:12;;;;;;;9.20;5.53;;;9.10;88.10;;;;;;5112188;27;20032;-65
2021/12/15 10:38:43;;;;;;;8.00;5.47;;;9.00;87.80;;;;;;5112227;27;20112;-64
2021/12/15 10:41:27;;;;;;;8.43;5.60;;;9.00;87.70;;;;;;5113525;27;20114;-64
2021/12/15 10:44:07;;;;;;;7.38;4.72;;;9.00;87.80;;;;;;5111363;27;20551;-64
2021/12/15 10:46:40;;;;;;;9.85;5.53;;;8.90;87.30;;;;;;5114577;27;20028;-65
2021/12/15 10:49:11;;;;;;;8.80;5.78;;;8.80;87.40;;;;;;5115348;27;20026;-65
2021/12/15 10:51:39;;;;;;;9.45;6.07;;;8.90;88.30;;;;;;5115102;27;20050;-64
2021/12/15 10:54:30;;;;;;;7.70;5.32;;;8.90;87.50;;;;;;5111413;27;20046;-65
2021/12/15 10:57:00;;;;;;;10.27;6.20;;;8.80;87.90;;;;;;5111567;27;20033;-65
2021/12/15 10:59:31;;;;;;;8.45;5.75;;;8.80;87.20;;;;;;5118905;27;20070;-67
2021/12/15 11:02:00;;;;;;;9.85;6.00;;;8.70;87.50;;;;;;5108288;28;20511;-65
2021/12/15 11:04:30;;;;;;;7.72;5.28;;;8.50;87.30;;;;;;5117890;27;20073;-65
2021/12/15 11:07:19;;;;;;;8.77;5.43;;;8.60;88.30;;;;;;5126615;27;20046;-65
2021/12/15 11:10:08;;;;;;;9.90;5.93;;;8.60;88.80;;;;;;5116437;27;20551;-66
2021/12/15 11:12:46;;;;;;;10.35;6.40;;;8.70;88.40;;;;;;5096543;28;20070;-65
2021/12/15 11:15:14;;;;;;;9.70;5.78;;;8.70;88.20;;;;;;5113058;27;20024;-65
2021/12/15 11:17:51;;;;;;;9.32;5.88;;;8.60;88.30;;;;;;5107440;27;20050;-68
2021/12/15 11:20:27;;;;;;;9.55;5.72;;;8.80;89.00;;;;;;5091633;28;20116;-71
2021/12/15 11:22:57;;;;;;;9.02;5.97;;;8.80;88.60;;;;;;5103637;28;20035;-71
2021/12/15 11:25:42;;;;;;;9.25;6.18;;;8.80;87.80;;;;;;5109126;27;20022;-71
2021/12/15 11:28:16;;;;;;;8.98;5.57;;;8.80;88.30;;;;;;5140843;27;20011;-71
2021/12/15 11:31:10;;;;;;;8.43;5.35;;;8.80;88.40;;;;;;5121469;27;20466;-72
2021/12/15 11:33:41;;;;;;;9.95;6.18;;;8.90;88.30;;;;;;5114712;27;20476;-71
2021/12/15 11:36:17;;;;;;;9.98;5.88;;;8.80;88.10;;;;;;5118345;27;20034;-68
2021/12/15 11:38:47;;;;;;;9.63;6.47;;;8.80;87.80;;;;;;5117602;27;20019;-70
2021/12/15 11:41:19;;;;;;;8.40;5.50;;;8.80;87.80;;;;;;5115108;27;20023;-64
2021/12/15 11:43:57;;;;;;;8.32;5.93;;;8.70;88.10;;;;;;5093690;27;20136;-64
2021/12/15 11:46:28;;;;;;;9.90;6.38;;;8.70;88.10;;;;;;5110385;28;20100;-64
2021/12/15 11:49:09;;;;;;;8.25;5.57;;;8.70;88.90;;;;;;5115759;27;20034;-64
2021/12/15 11:51:44;;;;;;;10.98;6.30;;;8.80;88.90;;;;;;5102265;27;20047;-64
2021/12/15 11:54:30;;;;;;;11.00;6.47;;;8.80;88.60;;;;;;5120349;27;20043;-65
2021/12/15 11:57:04;;;;;;;9.90;5.80;;;8.90;88.80;;;;;;5114468;27;20096;-65
2021/12/15 11:59:49;;;;;;;8.02;5.47;;;8.90;88.30;;;;;;5115974;27;20088;-64
2021/12/15 12:02:34;;;;;;;9.15;6.03;;;8.80;87.90;;;;;;5097325;28;20542;-65
2021/12/15 12:05:04;;;;;;;9.23;6.05;;;8.70;87.60;;;;;;5102962;27;20032;-65
2021/12/15 12:07:34;;;;;;;8.85;5.70;;;8.70;88.10;;;;;;5124740;27;20016;-64
2021/12/15 12:10:23;;;;;;;8.98;5.75;;;8.60;87.90;;;;;;5103384;27;20019;-65
2021/12/15 12:13:12;;;;;;;8.57;5.60;;;8.60;88.20;;;;;;5108225;27;20039;-65
2021/12/15 12:15:40;;;;;;;7.55;4.90;;;8.70;88.40;;;;;;5102218;27;20129;-67
2021/12/15 12:18:11;;;;;;;8.13;5.63;;;8.70;89.00;;;;;;5119531;27;20029;-65
2021/12/15 12:20:44;;;;;;;8.07;5.25;;;8.80;88.80;;;;;;5115465;27;20019;-65
2021/12/15 12:23:12;;;;;;;8.90;6.00;;;8.80;88.80;;;;;;5113338;27;20016;-65
2021/12/15 12:25:45;;;;;;;8.48;5.60;;;8.80;88.20;;;;;;5114918;27;20276;-68
2021/12/15 12:28:20;;;;;;;7.97;5.78;;;8.80;88.00;;;;;;5098426;28;20031;-67
2021/12/15 12:30:54;;;;;;;8.70;4.97;;;8.70;88.00;;;;;;5111496;28;20077;-68
2021/12/15 12:33:22;;;;;;;8.35;5.50;;;8.70;88.90;;;;;;5108682;28;20524;-67
2021/12/15 12:35:50;;;;;;;9.52;6.20;;;8.80;88.60;;;;;;5108928;28;20034;-67
2021/12/15 12:38:25;;;;;;;7.68;5.55;;;8.80;88.80;;;;;;5109315;28;20077;-67
2021/12/15 12:41:14;;;;;;;10.18;6.55;;;8.80;88.50;;;;;;5108945;28;20035;-67
2021/12/15 12:43:47;;;;;;;9.02;5.85;;;8.80;88.00;;;;;;5093048;28;20519;-67
2021/12/15 12:46:28;;;;;;;9.45;6.28;;;8.70;88.20;;;;;;5110472;28;20028;-67
2021/12/15 13:00:41;;;;;;;7.88;5.07;;;8.90;88.70;;;;;;5108684;28;20096;-66
2021/12/15 13:03:12;;;;;;;9.52;6.03;;;9.00;89.20;;;;;;5109740;28;20032;-66
2021/12/15 13:05:58;;;;;;;9.38;6.03;;;9.00;88.00;;;;;;5108305;28;20023;-66
2021/12/15 13:08:48;;;;;;;8.63;6.13;;;8.90;88.10;;;;;;5108474;28;20544;-67
2021/12/15 13:11:22;;;;;;;7.95;5.65;;;8.90;88.30;;;;;;5108237;28;20484;-68
2021/12/15 13:13:55;;;;;;;7.95;5.57;;;8.90;89.10;;;;;;5089785;28;20027;-65
2021/12/15 13:16:23;;;;;;;7.22;5.28;;;9.00;88.80;;;;;;5108095;28;20392;-65
2021/12/15 13:18:54;;;;;;;8.25;5.25;;;9.00;88.40;;;;;;5109573;28;20042;-65
2021/12/15 13:21:38;;;;;;;10.10;5.97;;;9.00;87.90;;;;;;5108576;28;20392;-65
2021/12/15 13:24:09;;;;;;;8.32;5.82;;;8.80;87.50;;;;;;5108692;28;20549;-65
2021/12/15 13:29:53;;;;;;;9.63;6.00;;;8.80;88.80;;;;;;5106899;28;20034;-65
2021/12/15 13:32:27;;;;;;;8.15;5.90;;;8.90;88.20;;;;;;5107482;28;20061;-65
2021/12/15 13:34:53;;;;;;;9.32;6.47;;;8.90;88.30;;;;;;5108140;28;20023;-65
2021/12/15 13:37:58;;;;;;;7.80;5.53;;;8.90;88.60;;;;;;5108467;28;20038;-65
2021/12/15 13:40:59;;;;;;;6.47;5.18;;;8.90;88.00;;;;;;5107771;28;20059;-66
2021/12/15 13:43:34;;;;;;;7.50;5.45;;;8.90;88.20;;;;;;5107688;28;20515;-65
2021/12/15 13:46:00;;;;;;;7.65;5.47;;;8.90;88.50;;;;;;5110331;28;20057;-65
2021/12/15 13:49:00;;;;;;;7.22;5.15;;;8.90;88.40;;;;;;5112215;28;20066;-65
2021/12/15 13:51:51;;;;;;;6.57;5.07;;;9.10;88.70;;;;;;5102667;28;20044;-65
2021/12/15 13:54:40;;;;;;;8.43;6.07;;;9.10;88.20;;;;;;5111220;28;20078;-65
2021/12/15 13:57:12;;;;;;;9.32;5.82;;;9.10;87.70;;;;;;5098738;28;20028;-65
2021/12/15 13:59:45;;;;;;;7.63;5.50;;;9.00;87.60;;;;;;5112095;28;20095;-65
2021/12/15 14:02:25;;;;;;;9.20;5.68;;;9.00;87.80;;;;;;5111862;28;20049;-66
2021/12/15 14:05:18;;;;;;;7.55;5.75;;;9.00;87.80;;;;;;5094183;28;20031;-65
2021/12/15 14:07:45;;;;;;;7.78;5.78;;;9.00;87.30;;;;;;5097196;28;20115;-65
2021/12/15 14:10:12;;;;;;;9.25;5.97;;;9.10;87.90;;;;;;5098060;28;20024;-65
2021/12/15 14:12:47;;;;;;;7.82;5.68;;;9.00;87.90;;;;;;5099918;28;20057;-65
2021/12/15 14:15:15;;;;;;;7.13;5.28;;;9.10;87.70;;;;;;5112241;27;20051;-65
2021/12/15 14:17:42;;;;;;;9.30;6.70;;;9.10;87.90;;;;;;5111968;28;20031;-65
2021/12/15 14:20:16;;;;;;;8.88;6.65;;;9.00;87.30;;;;;;5106962;28;20129;-65
2021/12/15 14:22:43;;;;;;;8.50;6.18;;;9.00;87.20;;;;;;5113427;27;20065;-65
2021/12/15 14:25:10;;;;;;;7.82;5.95;;;9.00;87.80;;;;;;5107715;27;20045;-65
2021/12/15 14:27:36;;;;;;;8.40;6.38;;;8.90;87.50;;;;;;5111637;28;20096;-65
2021/12/15 14:30:07;;;;;;;8.45;5.88;;;8.90;87.80;;;;;;5110484;28;20476;-65
2021/12/15 14:32:32;;;;;;;7.70;5.47;;;9.00;87.60;;;;;;5109723;28;20124;-65